sensor_id;sensor_type;location;lat;lon;timestamp;P1;durP1;ratioP1;P2;durP2;ratioP2
58982;SDS011;44771;49.982;8.560;2022-07-22T00:03:04;18.33;;;15.45;;
58982;SDS011;44771;49.982;8.560;2022-07-22T00:08:06;20.12;;;15.40;;
58982;SDS011;44771;49.982;8.560;2022-07-22T00:13:08;17.77;;;14.57;;
58982;SDS011;44771;49.982;8.560;2022-07-22T00:18:11;17.75;;;15.48;;
58982;SDS011;44771;49.982;8.560;2022-07-22T00:23:30;21.85;;;15.45;;
58982;SDS011;44771;49.982;8.560;2022-07-22T00:29:15;17.67;;;15.35;;
58982;SDS011;44771;49.982;8.560;2022-07-22T00:46:36;14.90;;;13.40;;
58982;SDS011;44771;49.982;8.560;2022-07-22T00:51:38;16.40;;;14.57;;
58982;SDS011;44771;49.982;8.560;2022-07-22T00:56:40;19.10;;;14.50;;
58982;SDS011;44771;49.982;8.560;2022-07-22T01:01:44;16.15;;;14.48;;
58982;SDS011;44771;49.982;8.560;2022-07-22T01:06:47;18.87;;;14.77;;
58982;SDS011;44771;49.982;8.560;2022-07-22T01:11:49;17.92;;;14.02;;
58982;SDS011;44771;49.982;8.560;2022-07-22T01:16:52;16.40;;;14.68;;
58982;SDS011;44771;49.982;8.560;2022-07-22T01:21:56;23.92;;;14.73;;
58982;SDS011;44771;49.982;8.560;2022-07-22T01:26:58;16.33;;;14.50;;
58982;SDS011;44771;49.982;8.560;2022-07-22T01:32:00;18.08;;;15.25;;
58982;SDS011;44771;49.982;8.560;2022-07-22T01:37:03;25.48;;;16.75;;
58982;SDS011;44771;49.982;8.560;2022-07-22T01:42:05;23.77;;;15.95;;
58982;SDS011;44771;49.982;8.560;2022-07-22T01:47:07;19.15;;;16.40;;
58982;SDS011;44771;49.982;8.560;2022-07-22T01:52:11;106.72;;;40.42;;
58982;SDS011;44771;49.982;8.560;2022-07-22T01:57:13;34.65;;;32.03;;
58982;SDS011;44771;49.982;8.560;2022-07-22T02:02:15;37.90;;;34.75;;
58982;SDS011;44771;49.982;8.560;2022-07-22T02:07:18;1999.90;;;999.90;;
58982;SDS011;44771;49.982;8.560;2022-07-22T02:12:20;1999.90;;;999.90;;
58982;SDS011;44771;49.982;8.560;2022-07-22T02:17:22;1999.90;;;999.90;;
58982;SDS011;44771;49.982;8.560;2022-07-22T02:22:25;142.07;;;47.10;;
58982;SDS011;44771;49.982;8.560;2022-07-22T02:27:27;11.85;;;11.27;;
58982;SDS011;44771;49.982;8.560;2022-07-22T02:32:29;10.52;;;9.93;;
58982;SDS011;44771;49.982;8.560;2022-07-22T02:37:42;133.37;;;70.40;;
58982;SDS011;44771;49.982;8.560;2022-07-22T02:42:55;11.07;;;10.18;;
58982;SDS011;44771;49.982;8.560;2022-07-22T02:47:57;10.90;;;10.20;;
58982;SDS011;44771;49.982;8.560;2022-07-22T02:53:01;11.45;;;10.60;;
58982;SDS011;44771;49.982;8.560;2022-07-22T02:58:04;170.93;;;94.37;;
58982;SDS011;44771;49.982;8.560;2022-07-22T03:03:08;47.30;;;32.65;;
58982;SDS011;44771;49.982;8.560;2022-07-22T03:08:20;83.25;;;26.85;;
58982;SDS011;44771;49.982;8.560;2022-07-22T03:13:21;15.05;;;10.55;;
58982;SDS011;44771;49.982;8.560;2022-07-22T03:18:43;10.55;;;9.85;;
58982;SDS011;44771;49.982;8.560;2022-07-22T03:23:46;8.32;;;7.80;;
58982;SDS011;44771;49.982;8.560;2022-07-22T03:28:48;9.57;;;8.80;;
58982;SDS011;44771;49.982;8.560;2022-07-22T03:33:50;9.48;;;8.98;;
58982;SDS011;44771;49.982;8.560;2022-07-22T03:38:56;510.23;;;80.95;;
58982;SDS011;44771;49.982;8.560;2022-07-22T03:43:59;28.45;;;16.87;;
58982;SDS011;44771;49.982;8.560;2022-07-22T03:49:05;0.60;;;0.60;;
58982;SDS011;44771;49.982;8.560;2022-07-22T03:54:09;12.77;;;11.95;;
58982;SDS011;44771;49.982;8.560;2022-07-22T03:59:22;142.80;;;36.00;;
58982;SDS011;44771;49.982;8.560;2022-07-22T04:04:24;244.77;;;208.02;;
58982;SDS011;44771;49.982;8.560;2022-07-22T04:09:30;122.32;;;50.80;;
58982;SDS011;44771;49.982;8.560;2022-07-22T04:14:32;40.60;;;38.33;;
58982;SDS011;44771;49.982;8.560;2022-07-22T04:19:34;11.73;;;10.95;;
58982;SDS011;44771;49.982;8.560;2022-07-22T04:24:40;95.38;;;33.78;;
58982;SDS011;44771;49.982;8.560;2022-07-22T04:29:42;9.95;;;9.25;;
58982;SDS011;44771;49.982;8.560;2022-07-22T04:34:53;8.55;;;8.15;;
58982;SDS011;44771;49.982;8.560;2022-07-22T04:40:08;8.32;;;7.50;;
58982;SDS011;44771;49.982;8.560;2022-07-22T04:45:11;7.70;;;7.30;;
58982;SDS011;44771;49.982;8.560;2022-07-22T04:50:13;8.70;;;8.10;;
58982;SDS011;44771;49.982;8.560;2022-07-22T04:55:16;9.55;;;8.93;;
58982;SDS011;44771;49.982;8.560;2022-07-22T05:00:19;9.70;;;9.00;;
58982;SDS011;44771;49.982;8.560;2022-07-22T05:05:30;7.37;;;7.03;;
58982;SDS011;44771;49.982;8.560;2022-07-22T05:10:34;7.07;;;6.78;;
58982;SDS011;44771;49.982;8.560;2022-07-22T05:15:39;8.52;;;8.02;;
58982;SDS011;44771;49.982;8.560;2022-07-22T05:20:44;9.32;;;8.73;;
58982;SDS011;44771;49.982;8.560;2022-07-22T05:26:03;20.77;;;8.20;;
58982;SDS011;44771;49.982;8.560;2022-07-22T05:31:13;7.40;;;7.10;;
58982;SDS011;44771;49.982;8.560;2022-07-22T05:36:15;7.53;;;7.12;;
58982;SDS011;44771;49.982;8.560;2022-07-22T05:41:18;45.55;;;19.35;;
58982;SDS011;44771;49.982;8.560;2022-07-22T05:46:20;7.90;;;7.50;;
58982;SDS011;44771;49.982;8.560;2022-07-22T05:51:22;7.68;;;7.28;;
58982;SDS011;44771;49.982;8.560;2022-07-22T06:02:12;17.65;;;15.57;;
58982;SDS011;44771;49.982;8.560;2022-07-22T06:07:14;7.50;;;7.20;;
58982;SDS011;44771;49.982;8.560;2022-07-22T06:12:17;15.93;;;11.32;;
58982;SDS011;44771;49.982;8.560;2022-07-22T06:17:19;7.28;;;6.97;;
58982;SDS011;44771;49.982;8.560;2022-07-22T06:22:21;64.72;;;15.85;;
58982;SDS011;44771;49.982;8.560;2022-07-22T06:27:25;10.52;;;9.82;;
58982;SDS011;44771;49.982;8.560;2022-07-22T06:32:27;9.45;;;8.93;;
58982;SDS011;44771;49.982;8.560;2022-07-22T06:37:29;11.25;;;10.48;;
58982;SDS011;44771;49.982;8.560;2022-07-22T06:42:52;9.18;;;8.65;;
58982;SDS011;44771;49.982;8.560;2022-07-22T06:47:54;11.15;;;10.07;;
58982;SDS011;44771;49.982;8.560;2022-07-22T06:52:56;9.15;;;8.65;;
58982;SDS011;44771;49.982;8.560;2022-07-22T06:58:00;30.40;;;15.90;;
58982;SDS011;44771;49.982;8.560;2022-07-22T07:03:02;88.35;;;15.98;;
58982;SDS011;44771;49.982;8.560;2022-07-22T07:08:27;8.85;;;8.18;;
58982;SDS011;44771;49.982;8.560;2022-07-22T07:18:58;14.10;;;9.10;;
58982;SDS011;44771;49.982;8.560;2022-07-22T07:24:04;9.50;;;8.93;;
58982;SDS011;44771;49.982;8.560;2022-07-22T07:29:06;9.57;;;8.73;;
58982;SDS011;44771;49.982;8.560;2022-07-22T07:34:10;9.45;;;8.85;;
58982;SDS011;44771;49.982;8.560;2022-07-22T07:39:12;9.38;;;8.60;;
58982;SDS011;44771;49.982;8.560;2022-07-22T07:44:14;9.43;;;8.82;;
58982;SDS011;44771;49.982;8.560;2022-07-22T07:49:17;9.23;;;8.63;;
58982;SDS011;44771;49.982;8.560;2022-07-22T07:54:19;9.40;;;8.80;;
58982;SDS011;44771;49.982;8.560;2022-07-22T07:59:22;9.13;;;8.15;;
58982;SDS011;44771;49.982;8.560;2022-07-22T08:04:30;9.73;;;8.80;;
58982;SDS011;44771;49.982;8.560;2022-07-22T08:09:49;9.90;;;9.00;;
58982;SDS011;44771;49.982;8.560;2022-07-22T08:15:25;7.60;;;7.20;;
58982;SDS011;44771;49.982;8.560;2022-07-22T08:20:30;9.75;;;8.95;;
58982;SDS011;44771;49.982;8.560;2022-07-22T08:25:32;7.12;;;6.82;;
58982;SDS011;44771;49.982;8.560;2022-07-22T08:30:34;34.03;;;11.18;;
58982;SDS011;44771;49.982;8.560;2022-07-22T08:35:37;6.90;;;6.60;;
58982;SDS011;44771;49.982;8.560;2022-07-22T08:40:39;7.87;;;7.28;;
58982;SDS011;44771;49.982;8.560;2022-07-22T08:45:43;9.50;;;8.00;;
58982;SDS011;44771;49.982;8.560;2022-07-22T08:50:47;8.45;;;7.75;;
58982;SDS011;44771;49.982;8.560;2022-07-22T08:55:48;10.02;;;9.20;;
58982;SDS011;44771;49.982;8.560;2022-07-22T09:01:03;9.00;;;8.30;;
58982;SDS011;44771;49.982;8.560;2022-07-22T09:11:22;9.45;;;8.65;;
58982;SDS011;44771;49.982;8.560;2022-07-22T09:16:38;10.47;;;9.47;;
58982;SDS011;44771;49.982;8.560;2022-07-22T09:21:43;7.47;;;6.82;;
58982;SDS011;44771;49.982;8.560;2022-07-22T09:27:06;7.60;;;7.10;;
58982;SDS011;44771;49.982;8.560;2022-07-22T09:32:24;8.60;;;7.87;;
58982;SDS011;44771;49.982;8.560;2022-07-22T09:37:28;6.87;;;6.45;;
58982;SDS011;44771;49.982;8.560;2022-07-22T09:42:31;6.90;;;6.50;;
58982;SDS011;44771;49.982;8.560;2022-07-22T09:47:48;6.45;;;6.00;;
58982;SDS011;44771;49.982;8.560;2022-07-22T09:52:53;15.38;;;13.85;;
58982;SDS011;44771;49.982;8.560;2022-07-22T09:58:04;14.07;;;12.80;;
58982;SDS011;44771;49.982;8.560;2022-07-22T10:03:07;14.02;;;12.68;;
58982;SDS011;44771;49.982;8.560;2022-07-22T10:08:13;14.02;;;12.63;;
58982;SDS011;44771;49.982;8.560;2022-07-22T10:18:38;13.30;;;11.93;;
58982;SDS011;44771;49.982;8.560;2022-07-22T10:29:24;12.60;;;11.30;;
58982;SDS011;44771;49.982;8.560;2022-07-22T10:34:27;16.08;;;12.75;;
58982;SDS011;44771;49.982;8.560;2022-07-22T10:39:31;11.48;;;10.38;;
58982;SDS011;44771;49.982;8.560;2022-07-22T10:44:53;13.45;;;12.30;;
58982;SDS011;44771;49.982;8.560;2022-07-22T11:07:40;11.93;;;10.80;;
58982;SDS011;44771;49.982;8.560;2022-07-22T11:12:44;16.45;;;11.10;;
58982;SDS011;44771;49.982;8.560;2022-07-22T11:17:46;12.47;;;11.13;;
58982;SDS011;44771;49.982;8.560;2022-07-22T11:22:48;10.77;;;9.73;;
58982;SDS011;44771;49.982;8.560;2022-07-22T11:27:54;58.63;;;18.33;;
58982;SDS011;44771;49.982;8.560;2022-07-22T11:33:08;20.37;;;18.90;;
58982;SDS011;44771;49.982;8.560;2022-07-22T11:38:10;17.10;;;15.82;;
58982;SDS011;44771;49.982;8.560;2022-07-22T11:43:13;13.52;;;11.30;;
58982;SDS011;44771;49.982;8.560;2022-07-22T11:48:15;11.10;;;10.10;;
58982;SDS011;44771;49.982;8.560;2022-07-22T11:53:21;9.77;;;8.70;;
58982;SDS011;44771;49.982;8.560;2022-07-22T11:58:41;9.73;;;8.85;;
58982;SDS011;44771;49.982;8.560;2022-07-22T12:03:44;22.92;;;11.32;;
58982;SDS011;44771;49.982;8.560;2022-07-22T12:13:52;34.40;;;20.27;;
58982;SDS011;44771;49.982;8.560;2022-07-22T12:18:55;13.07;;;12.23;;
58982;SDS011;44771;49.982;8.560;2022-07-22T12:24:00;10.90;;;10.40;;
58982;SDS011;44771;49.982;8.560;2022-07-22T12:29:26;11.73;;;11.00;;
58982;SDS011;44771;49.982;8.560;2022-07-22T12:34:34;10.80;;;9.85;;
58982;SDS011;44771;49.982;8.560;2022-07-22T12:39:51;10.50;;;9.60;;
58982;SDS011;44771;49.982;8.560;2022-07-22T12:45:05;11.40;;;9.77;;
58982;SDS011;44771;49.982;8.560;2022-07-22T12:50:19;64.00;;;25.65;;
58982;SDS011;44771;49.982;8.560;2022-07-22T12:55:26;21.77;;;20.35;;
58982;SDS011;44771;49.982;8.560;2022-07-22T13:00:30;9.07;;;8.27;;
58982;SDS011;44771;49.982;8.560;2022-07-22T13:05:34;8.45;;;7.95;;
58982;SDS011;44771;49.982;8.560;2022-07-22T13:10:36;22.60;;;7.70;;
58982;SDS011;44771;49.982;8.560;2022-07-22T13:15:44;8.57;;;6.78;;
58982;SDS011;44771;49.982;8.560;2022-07-22T13:20:49;7.47;;;6.78;;
58982;SDS011;44771;49.982;8.560;2022-07-22T13:25:51;7.62;;;7.03;;
58982;SDS011;44771;49.982;8.560;2022-07-22T13:30:57;12.85;;;12.02;;
58982;SDS011;44771;49.982;8.560;2022-07-22T13:35:59;13.75;;;12.95;;
58982;SDS011;44771;49.982;8.560;2022-07-22T13:41:02;18.35;;;16.17;;
58982;SDS011;44771;49.982;8.560;2022-07-22T13:46:06;17.80;;;16.58;;
58982;SDS011;44771;49.982;8.560;2022-07-22T13:56:31;12.68;;;11.98;;
58982;SDS011;44771;49.982;8.560;2022-07-22T14:06:54;16.98;;;8.57;;
58982;SDS011;44771;49.982;8.560;2022-07-22T14:11:59;9.88;;;9.10;;
58982;SDS011;44771;49.982;8.560;2022-07-22T14:17:03;10.52;;;9.52;;
58982;SDS011;44771;49.982;8.560;2022-07-22T14:32:43;9.00;;;8.30;;
58982;SDS011;44771;49.982;8.560;2022-07-22T14:37:45;55.67;;;43.47;;
58982;SDS011;44771;49.982;8.560;2022-07-22T14:48:05;11.15;;;10.05;;
58982;SDS011;44771;49.982;8.560;2022-07-22T14:53:17;130.93;;;17.02;;
58982;SDS011;44771;49.982;8.560;2022-07-22T14:58:19;14.23;;;13.13;;
58982;SDS011;44771;49.982;8.560;2022-07-22T18:09:19;9.02;;;8.32;;
58982;SDS011;44771;49.982;8.560;2022-07-22T19:14:04;9.70;;;9.20;;
58982;SDS011;44771;49.982;8.560;2022-07-22T19:19:06;21.80;;;10.32;;
58982;SDS011;44771;49.982;8.560;2022-07-22T19:29:26;9.73;;;9.13;;
58982;SDS011;44771;49.982;8.560;2022-07-22T20:13:11;12.10;;;10.75;;
58982;SDS011;44771;49.982;8.560;2022-07-22T20:23:51;13.02;;;11.48;;
58982;SDS011;44771;49.982;8.560;2022-07-22T20:29:12;9.35;;;8.45;;
58982;SDS011;44771;49.982;8.560;2022-07-22T20:34:44;288.08;;;68.90;;
58982;SDS011;44771;49.982;8.560;2022-07-22T20:56:23;9.32;;;8.38;;
58982;SDS011;44771;49.982;8.560;2022-07-22T21:01:30;526.97;;;71.32;;
58982;SDS011;44771;49.982;8.560;2022-07-22T21:06:47;308.08;;;64.28;;
58982;SDS011;44771;49.982;8.560;2022-07-22T21:11:50;250.07;;;39.45;;
58982;SDS011;44771;49.982;8.560;2022-07-22T21:16:52;1365.10;;;171.77;;
58982;SDS011;44771;49.982;8.560;2022-07-22T21:21:54;10.45;;;9.45;;
58982;SDS011;44771;49.982;8.560;2022-07-22T21:27:24;9.65;;;8.70;;
58982;SDS011;44771;49.982;8.560;2022-07-22T21:32:29;9.73;;;8.93;;
58982;SDS011;44771;49.982;8.560;2022-07-22T21:37:31;12.55;;;9.05;;
58982;SDS011;44771;49.982;8.560;2022-07-22T21:42:35;17.42;;;8.50;;
58982;SDS011;44771;49.982;8.560;2022-07-22T21:47:36;11.00;;;9.75;;
58982;SDS011;44771;49.982;8.560;2022-07-22T21:52:39;11.12;;;8.60;;
58982;SDS011;44771;49.982;8.560;2022-07-22T21:57:43;9.95;;;9.05;;
58982;SDS011;44771;49.982;8.560;2022-07-22T22:02:45;11.88;;;8.85;;
58982;SDS011;44771;49.982;8.560;2022-07-22T22:07:47;9.90;;;8.95;;
58982;SDS011;44771;49.982;8.560;2022-07-22T22:12:53;12.02;;;9.20;;
58982;SDS011;44771;49.982;8.560;2022-07-22T22:17:55;10.55;;;9.65;;
58982;SDS011;44771;49.982;8.560;2022-07-22T22:22:57;15.13;;;12.88;;
58982;SDS011;44771;49.982;8.560;2022-07-22T22:34:30;11.52;;;10.55;;
58982;SDS011;44771;49.982;8.560;2022-07-22T22:39:32;10.85;;;9.75;;
58982;SDS011;44771;49.982;8.560;2022-07-22T22:44:33;10.88;;;9.80;;
58982;SDS011;44771;49.982;8.560;2022-07-22T22:55:30;11.52;;;10.32;;
58982;SDS011;44771;49.982;8.560;2022-07-22T23:00:32;13.02;;;9.43;;
58982;SDS011;44771;49.982;8.560;2022-07-22T23:05:33;10.07;;;9.27;;
58982;SDS011;44771;49.982;8.560;2022-07-22T23:10:40;10.13;;;9.15;;
58982;SDS011;44771;49.982;8.560;2022-07-22T23:15:42;9.57;;;8.57;;
58982;SDS011;44771;49.982;8.560;2022-07-22T23:20:44;11.82;;;9.02;;
58982;SDS011;44771;49.982;8.560;2022-07-22T23:25:48;9.98;;;9.18;;
58982;SDS011;44771;49.982;8.560;2022-07-22T23:30:57;9.52;;;8.68;;
58982;SDS011;44771;49.982;8.560;2022-07-22T23:36:16;10.45;;;9.50;;
58982;SDS011;44771;49.982;8.560;2022-07-22T23:41:19;10.55;;;9.65;;
58982;SDS011;44771;49.982;8.560;2022-07-22T23:46:21;384.50;;;144.10;;
58982;SDS011;44771;49.982;8.560;2022-07-22T23:51:26;9.98;;;9.00;;
58982;SDS011;44771;49.982;8.560;2022-07-22T23:56:48;7.05;;;6.65;;
